Time;durP1;ratioP1;P1;durP2;ratioP2;P2;SDS_P1;SDS_P2;PMS_P1;PMS_P2;Temp;Humidity;BMP_temperature;BMP_pressure;BME280_temperature;BME280_humidity;BME280_pressure;Samples;Min_cycle;Max_cycle;Signal;HPM_P1;HPM_P2
2023/01/02 00:02:07;;;;;;;24.33;11.23;;;12.00;99.90;;;;;;4977708;28;20041;-66
2023/01/02 00:04:32;;;;;;;14.07;7.53;;;12.10;99.90;;;;;;4976502;28;20081;-66
2023/01/02 00:06:57;;;;;;;14.80;7.83;;;12.20;99.90;;;;;;4976626;28;20491;-66
2023/01/02 00:09:24;;;;;;;16.00;7.53;;;12.20;99.90;;;;;;4975568;28;20114;-65
2023/01/02 00:11:49;;;;;;;15.30;8.35;;;12.20;99.90;;;;;;4976363;28;20035;-66
2023/01/02 00:14:15;;;;;;;14.83;7.97;;;12.10;99.90;;;;;;4975880;28;20603;-65
2023/01/02 00:16:40;;;;;;;22.47;10.37;;;12.00;99.90;;;;;;4976133;28;20027;-65
2023/01/02 00:19:07;;;;;;;20.37;10.27;;;12.00;99.90;;;;;;4975928;28;20420;-65
2023/01/02 00:21:33;;;;;;;21.65;8.88;;;11.90;99.90;;;;;;4975643;28;20023;-65
2023/01/02 00:23:58;;;;;;;19.33;8.57;;;11.80;99.90;;;;;;4975793;28;20019;-65
2023/01/02 00:26:24;;;;;;;20.77;8.90;;;11.80;99.90;;;;;;4976385;28;20038;-65
2023/01/02 00:28:50;;;;;;;19.67;9.37;;;11.70;99.90;;;;;;4975940;28;20029;-66
2023/01/02 00:31:15;;;;;;;16.17;7.97;;;11.70;99.90;;;;;;4975494;28;20283;-65
2023/01/02 00:33:41;;;;;;;18.40;8.93;;;11.70;99.90;;;;;;4975374;28;20046;-66
2023/01/02 00:36:11;;;;;;;16.23;8.47;;;11.60;99.90;;;;;;4975409;28;20034;-65
2023/01/02 00:38:38;;;;;;;18.80;8.75;;;11.80;99.90;;;;;;4975535;28;20105;-65
2023/01/02 00:41:03;;;;;;;15.60;7.20;;;12.00;99.90;;;;;;4974963;28;20438;-65
2023/01/02 00:43:29;;;;;;;16.07;8.17;;;12.00;99.90;;;;;;4975130;28;20023;-65
2023/01/02 00:45:55;;;;;;;13.93;6.87;;;12.10;99.90;;;;;;4975003;28;20396;-66
2023/01/02 00:48:21;;;;;;;14.43;7.75;;;12.00;99.90;;;;;;4973671;28;20491;-66
2023/01/02 00:50:48;;;;;;;18.15;7.25;;;11.90;99.90;;;;;;4974707;28;20038;-66
2023/01/02 00:53:13;;;;;;;;;;;12.00;99.90;;;;;;4975234;28;20027;-66
2023/01/02 00:55:39;;;;;;;13.27;6.18;;;12.00;99.90;;;;;;4974835;28;19906;-66
2023/01/02 00:58:05;;;;;;;14.10;6.80;;;12.10;99.90;;;;;;4974826;28;20035;-66
2023/01/02 01:00:31;;;;;;;12.50;6.43;;;12.20;99.90;;;;;;4974800;28;20027;-66
2023/01/02 01:02:58;;;;;;;15.70;6.25;;;12.20;99.90;;;;;;4974874;28;20097;-66
2023/01/02 01:05:24;;;;;;;10.27;5.28;;;12.10;99.90;;;;;;4974715;28;20031;-66
2023/01/02 01:07:50;;;;;;;11.18;5.68;;;12.00;99.90;;;;;;4974698;28;20022;-65
2023/01/02 01:10:16;;;;;;;9.57;4.47;;;12.00;99.90;;;;;;4974352;28;20110;-65
2023/01/02 01:12:42;;;;;;;9.23;5.13;;;12.20;99.90;;;;;;4980281;28;20061;-66
2023/01/02 01:15:07;;;;;;;13.98;5.95;;;12.40;99.90;;;;;;4985696;28;20042;-65
2023/01/02 01:17:33;;;;;;;16.50;6.57;;;12.30;99.90;;;;;;4976128;28;20031;-66
2023/01/02 01:19:59;;;;;;;10.05;5.28;;;12.30;99.90;;;;;;4974032;28;20042;-65
2023/01/02 01:22:24;;;;;;;9.87;5.27;;;12.30;99.90;;;;;;4978199;28;20030;-64
2023/01/02 01:24:50;;;;;;;13.73;6.23;;;12.30;99.90;;;;;;4993870;28;20157;-66
2023/01/02 01:27:15;;;;;;;10.57;5.90;;;12.20;99.90;;;;;;4994933;28;20026;-66
2023/01/02 01:29:41;;;;;;;12.30;5.77;;;12.20;99.90;;;;;;4985981;28;20039;-66
2023/01/02 01:32:06;;;;;;;12.57;5.57;;;12.20;99.90;;;;;;4981014;28;20038;-66
2023/01/02 01:34:32;;;;;;;10.47;5.10;;;12.10;99.90;;;;;;4980691;28;20105;-66
2023/01/02 01:36:57;;;;;;;9.83;4.87;;;12.10;99.90;;;;;;4980854;28;20037;-67
2023/01/02 01:39:23;;;;;;;9.37;4.83;;;12.20;99.90;;;;;;4981040;28;20056;-66
2023/01/02 01:41:49;;;;;;;12.57;5.27;;;12.20;99.90;;;;;;4980521;28;20085;-66
2023/01/02 01:44:41;;;;;;;15.40;5.70;;;12.10;99.90;;;;;;4980591;28;20023;-66
2023/01/02 01:47:39;;;;;;;10.43;5.68;;;12.10;99.90;;;;;;4980612;28;20050;-65
2023/01/02 01:50:13;;;;;;;11.73;6.32;;;12.00;99.90;;;;;;4978583;28;20058;-65
2023/01/02 01:52:54;;;;;;;14.38;6.35;;;11.90;99.90;;;;;;4979398;28;20035;-65
2023/01/02 01:55:30;;;;;;;11.82;6.15;;;11.80;99.90;;;;;;4980496;28;20121;-65
2023/01/02 01:58:01;;;;;;;14.90;6.53;;;11.70;99.90;;;;;;4980678;28;20054;-65
2023/01/02 02:00:28;;;;;;;14.27;6.47;;;11.90;99.90;;;;;;4984802;28;20037;-65
2023/01/02 02:03:00;;;;;;;11.82;5.53;;;11.90;99.90;;;;;;5000151;28;20120;-66
2023/01/02 02:05:29;;;;;;;14.55;6.43;;;12.00;99.90;;;;;;5000070;28;20117;-65
2023/01/02 02:08:29;;;;;;;15.32;6.38;;;12.00;99.90;;;;;;5000475;28;20752;-65
2023/01/02 02:10:58;;;;;;;11.43;5.53;;;12.00;99.90;;;;;;4961098;28;20466;-65
2023/01/02 02:13:24;;;;;;;12.68;5.68;;;12.00;99.90;;;;;;4978717;28;20403;-66
2023/01/02 02:16:16;;;;;;;13.80;5.40;;;11.80;99.90;;;;;;4979287;28;20113;-66
2023/01/02 02:19:01;;;;;;;12.20;5.63;;;11.80;99.90;;;;;;4979284;28;20610;-66
2023/01/02 02:21:43;;;;;;;10.63;4.93;;;11.90;99.90;;;;;;4978658;28;20053;-66
2023/01/02 02:24:20;;;;;;;11.70;5.82;;;11.70;99.90;;;;;;4978906;28;20042;-65
2023/01/02 02:27:21;;;;;;;;;;;11.90;99.90;;;;;;4979668;28;20022;-65
2023/01/02 02:30:13;;;;;;;9.80;4.97;;;11.90;99.90;;;;;;4883359;29;19938;-65
2023/01/02 02:33:01;;;;;;;13.13;4.20;;;12.00;99.90;;;;;;4976166;28;20051;-65
2023/01/02 02:36:07;;;;;;;8.45;4.13;;;12.00;99.90;;;;;;4962689;28;20044;-65
2023/01/02 02:39:06;;;;;;;10.35;4.32;;;12.10;99.90;;;;;;4969720;28;20035;-66
2023/01/02 02:41:53;;;;;;;10.52;4.97;;;12.20;99.90;;;;;;4955877;29;20393;-65
2023/01/02 02:44:39;;;;;;;8.70;4.20;;;12.00;99.90;;;;;;4955528;29;20047;-66
2023/01/02 02:47:24;;;;;;;7.80;4.18;;;12.00;99.90;;;;;;4956685;29;20032;-65
2023/01/02 02:50:08;;;;;;;8.88;4.32;;;12.00;99.90;;;;;;4956386;28;20024;-65
2023/01/02 02:52:42;;;;;;;8.48;4.80;;;12.00;99.90;;;;;;4957806;28;20086;-65
2023/01/02 02:55:14;;;;;;;10.30;4.55;;;12.00;99.90;;;;;;4957552;28;20035;-65
2023/01/02 02:57:42;;;;;;;8.25;4.20;;;12.00;99.90;;;;;;4957617;28;20077;-66
2023/01/02 03:00:11;;;;;;;10.32;4.25;;;12.10;99.90;;;;;;4956390;29;20031;-66
2023/01/02 03:02:37;;;;;;;8.13;4.22;;;12.10;99.90;;;;;;4957433;28;20079;-66
2023/01/02 03:05:06;;;;;;;8.00;3.77;;;12.00;99.90;;;;;;4957674;28;20027;-66
2023/01/02 03:07:45;;;;;;;9.77;4.25;;;12.00;99.90;;;;;;4957833;28;20115;-66
2023/01/02 03:10:27;;;;;;;9.48;3.85;;;12.00;99.90;;;;;;4957123;29;20110;-65
2023/01/02 03:12:59;;;;;;;10.05;4.50;;;12.00;99.90;;;;;;4957968;28;20055;-66
2023/01/02 03:15:42;;;;;;;11.85;4.47;;;12.00;99.90;;;;;;4957777;28;20129;-66
2023/01/02 03:18:20;;;;;;;8.20;3.88;;;12.10;99.90;;;;;;4957476;28;20028;-66
2023/01/02 03:21:01;;;;;;;10.55;4.43;;;12.10;99.90;;;;;;4957573;28;20027;-65
2023/01/02 03:23:29;;;;;;;8.80;4.60;;;12.00;99.90;;;;;;4955980;29;20043;-65
2023/01/02 03:25:58;;;;;;;11.48;4.28;;;12.00;99.90;;;;;;4955765;28;20031;-66
2023/01/02 03:28:25;;;;;;;9.32;4.30;;;11.90;99.90;;;;;;4957616;28;20473;-65
2023/01/02 03:30:55;;;;;;;7.45;3.28;;;12.00;99.90;;;;;;4957092;28;20066;-66
2023/01/02 03:33:28;;;;;;;10.38;4.05;;;12.10;99.90;;;;;;4957030;28;20489;-67
2023/01/02 03:35:59;;;;;;;9.32;3.45;;;12.10;99.90;;;;;;4957354;28;20019;-65
2023/01/02 03:38:43;;;;;;;10.98;3.85;;;12.00;99.90;;;;;;4963880;28;20388;-65
2023/01/02 03:41:14;;;;;;;12.00;3.92;;;12.00;99.90;;;;;;4974650;28;20031;-65
2023/01/02 03:43:42;;;;;;;8.00;3.47;;;11.90;99.90;;;;;;4976305;28;20022;-65
2023/01/02 03:46:16;;;;;;;6.63;3.03;;;12.00;99.90;;;;;;4975924;28;20535;-66
2023/01/02 03:48:49;;;;;;;6.63;3.38;;;12.00;99.90;;;;;;4975759;28;20042;-66
2023/01/02 03:51:14;;;;;;;5.60;2.90;;;12.20;99.90;;;;;;4975623;28;20034;-67
2023/01/02 03:53:40;;;;;;;8.23;2.80;;;12.30;99.90;;;;;;4976325;28;20027;-66
2023/01/02 03:56:08;;;;;;;7.50;3.50;;;12.20;99.90;;;;;;4975447;28;20145;-66
2023/01/02 03:58:56;;;;;;;7.03;2.92;;;12.30;99.90;;;;;;4975893;28;20109;-65
2023/01/02 04:01:45;;;;;;;7.53;3.17;;;12.30;99.90;;;;;;4975581;28;20436;-66
2023/01/02 04:04:30;;;;;;;8.88;3.13;;;12.30;99.90;;;;;;4975844;28;20492;-66
2023/01/02 04:07:01;;;;;;;7.85;3.67;;;12.30;99.90;;;;;;4975665;28;20027;-66
2023/01/02 04:09:30;;;;;;;6.78;2.42;;;12.30;99.90;;;;;;4975203;28;20480;-66
2023/01/02 04:12:01;;;;;;;7.40;3.13;;;12.60;99.90;;;;;;4976292;28;20027;-66
2023/01/02 04:14:54;;;;;;;9.05;2.72;;;12.50;99.90;;;;;;4975738;28;20373;-66
2023/01/02 04:17:23;;;;;;;7.88;2.75;;;12.60;99.90;;;;;;4975369;28;20104;-66
2023/01/02 04:19:53;;;;;;;5.57;2.63;;;12.50;99.90;;;;;;4973940;28;20049;-66
2023/01/02 04:22:40;;;;;;;8.85;2.95;;;12.60;99.90;;;;;;4975413;28;20023;-66
2023/01/02 04:25:10;;;;;;;5.93;2.08;;;12.60;99.90;;;;;;4975262;28;20030;-66
2023/01/02 04:27:58;;;;;;;7.40;2.72;;;12.60;99.90;;;;;;4975781;28;20033;-66
2023/01/02 04:30:24;;;;;;;7.22;2.95;;;12.70;99.90;;;;;;4975225;28;20122;-66
2023/01/02 04:32:50;;;;;;;;;;;12.60;99.90;;;;;;4975522;28;20106;-66
2023/01/02 04:35:19;;;;;;;5.25;2.35;;;12.50;99.90;;;;;;4975041;28;20401;-66
2023/01/02 04:37:45;;;;;;;9.07;3.40;;;12.60;99.90;;;;;;4974971;28;20504;-66
2023/01/02 04:40:19;;;;;;;14.65;4.20;;;12.50;99.90;;;;;;4974591;28;20031;-65
2023/01/02 04:42:45;;;;;;;7.53;2.72;;;12.60;99.90;;;;;;4974765;28;20503;-65
2023/01/02 04:45:11;;;;;;;6.50;2.93;;;12.60;99.90;;;;;;4973572;28;20023;-66
2023/01/02 04:47:36;;;;;;;7.45;2.90;;;12.70;99.90;;;;;;4974721;28;20098;-65
2023/01/02 04:50:03;;;;;;;9.27;3.00;;;12.60;99.90;;;;;;4974816;28;20035;-65
2023/01/02 04:52:29;;;;;;;7.32;2.80;;;12.60;99.90;;;;;;4974791;28;20041;-65
2023/01/02 04:54:54;;;;;;;10.77;2.83;;;12.40;99.90;;;;;;4974638;28;20387;-65
2023/01/02 04:57:20;;;;;;;6.53;3.40;;;12.40;99.90;;;;;;4975054;28;20062;-65
2023/01/02 04:59:45;;;;;;;6.53;2.73;;;12.50;99.90;;;;;;4975090;28;20054;-65
2023/01/02 05:02:11;;;;;;;5.80;2.67;;;12.40;99.90;;;;;;4973844;28;20066;-66
2023/01/02 05:04:36;;;;;;;8.83;3.00;;;12.40;99.90;;;;;;4974588;28;20058;-66
2023/01/02 05:07:03;;;;;;;11.80;3.43;;;12.30;99.90;;;;;;4974846;28;20101;-66
2023/01/02 05:09:28;;;;;;;9.40;3.65;;;12.20;99.90;;;;;;4975138;28;20483;-66
2023/01/02 05:11:54;;;;;;;7.37;3.80;;;12.20;99.90;;;;;;4974508;28;20133;-65
2023/01/02 05:14:19;;;;;;;4.87;2.60;;;12.10;99.90;;;;;;4975115;28;20035;-66
2023/01/02 05:16:45;;;;;;;9.33;3.13;;;12.10;99.90;;;;;;4974504;28;20026;-66
2023/01/02 05:19:11;;;;;;;9.10;2.73;;;12.20;99.90;;;;;;4975088;28;20476;-65
2023/01/02 05:24:21;;;;;;;8.05;2.53;;;12.10;99.90;;;;;;4974603;28;20257;-66
2023/01/02 05:26:46;;;;;;;7.30;2.50;;;12.10;99.90;;;;;;4974148;28;20058;-67
2023/01/02 05:29:12;;;;;;;9.23;3.10;;;12.10;99.90;;;;;;4974370;28;20461;-66
2023/01/02 05:31:37;;;;;;;7.82;3.65;;;12.10;99.90;;;;;;4974293;28;20098;-66
2023/01/02 05:34:03;;;;;;;7.30;2.87;;;12.00;99.90;;;;;;4974386;28;20030;-66
2023/01/02 05:36:29;;;;;;;9.53;3.30;;;12.00;99.90;;;;;;4975030;28;20109;-66
2023/01/02 05:38:54;;;;;;;8.67;3.33;;;11.90;99.90;;;;;;4974855;28;20027;-66
2023/01/02 05:41:21;;;;;;;10.63;4.10;;;11.80;99.90;;;;;;4974069;28;20396;-66
2023/01/02 05:43:46;;;;;;;;;;;11.80;99.90;;;;;;4974817;28;20814;-66
2023/01/02 05:46:17;;;;;;;9.00;3.50;;;11.80;99.90;;;;;;4974729;28;19998;-67
2023/01/02 05:48:44;;;;;;;14.02;4.28;;;11.80;99.90;;;;;;4974542;28;20031;-65
2023/01/02 05:51:12;;;;;;;7.13;3.38;;;11.80;99.90;;;;;;4974833;28;20411;-66
2023/01/02 05:53:38;;;;;;;7.70;3.78;;;11.70;99.90;;;;;;4974158;28;20069;-67
2023/01/02 05:56:14;;;;;;;10.50;4.15;;;11.80;99.90;;;;;;4973779;28;20553;-66
2023/01/02 05:58:42;;;;;;;11.40;3.63;;;11.70;99.90;;;;;;4974088;28;20030;-67
2023/01/02 06:01:10;;;;;;;11.02;4.10;;;11.60;99.90;;;;;;4974830;28;20375;-66
2023/01/02 06:03:36;;;;;;;13.30;4.32;;;11.70;99.90;;;;;;4974299;28;20480;-66
2023/01/02 06:06:11;;;;;;;10.43;3.67;;;11.70;99.90;;;;;;4974268;28;20110;-66
2023/01/02 06:08:37;;;;;;;9.85;3.63;;;11.60;99.90;;;;;;4974229;28;20121;-66
2023/01/02 06:11:04;;;;;;;8.90;3.42;;;11.60;99.90;;;;;;4973742;28;20094;-66
2023/01/02 06:13:32;;;;;;;10.70;3.38;;;11.60;99.90;;;;;;4974416;28;20089;-66
2023/01/02 06:15:58;;;;;;;5.47;3.13;;;11.60;99.90;;;;;;4977895;28;20026;-66
2023/01/02 06:18:24;;;;;;;;;;;11.40;99.90;;;;;;4978026;28;20019;-66
2023/01/02 06:20:50;;;;;;;10.88;3.60;;;11.40;99.90;;;;;;4977463;28;20359;-66
2023/01/02 06:23:16;;;;;;;7.70;3.73;;;11.40;99.90;;;;;;4977749;28;20015;-66
2023/01/02 06:25:41;;;;;;;10.38;3.88;;;11.40;99.90;;;;;;4977249;28;20262;-66
2023/01/02 06:28:07;;;;;;;7.27;3.00;;;11.50;99.90;;;;;;4977435;28;20057;-65
2023/01/02 06:30:33;;;;;;;9.63;3.30;;;11.40;99.90;;;;;;4977109;28;20060;-65
2023/01/02 06:32:58;;;;;;;11.63;3.28;;;11.40;99.90;;;;;;4977226;28;20031;-65
2023/01/02 06:35:24;;;;;;;8.70;3.50;;;11.30;99.90;;;;;;4977434;28;20045;-65
2023/01/02 06:37:49;;;;;;;7.23;3.20;;;11.20;99.90;;;;;;4977451;28;20062;-65
2023/01/02 06:40:16;;;;;;;9.37;3.73;;;11.20;99.90;;;;;;4976935;28;20045;-65
2023/01/02 06:42:44;;;;;;;8.55;3.53;;;11.20;99.90;;;;;;4976809;28;20058;-66
2023/01/02 06:45:10;;;;;;;6.85;3.40;;;11.20;99.90;;;;;;4970624;28;20432;-67
2023/01/02 06:47:36;;;;;;;9.57;3.58;;;11.10;99.90;;;;;;4979423;28;20081;-67
2023/01/02 06:50:02;;;;;;;11.17;3.63;;;11.10;99.90;;;;;;4996306;28;20026;-67
2023/01/02 06:52:28;;;;;;;6.50;3.17;;;11.10;99.90;;;;;;4991159;28;20280;-67
2023/01/02 06:54:54;;;;;;;12.85;3.85;;;11.10;99.90;;;;;;4994272;28;20061;-67
2023/01/02 06:57:20;;;;;;;8.85;3.78;;;11.10;99.90;;;;;;4994240;28;20074;-67
2023/01/02 06:59:45;;;;;;;11.88;3.75;;;11.20;99.90;;;;;;4994186;28;20030;-66
2023/01/02 07:02:12;;;;;;;7.23;3.77;;;11.10;99.90;;;;;;4994425;28;20039;-67
2023/01/02 07:04:37;;;;;;;11.38;4.00;;;11.10;99.90;;;;;;4994430;28;20110;-67
2023/01/02 07:07:03;;;;;;;13.13;4.40;;;11.00;99.90;;;;;;4994441;28;20054;-67
2023/01/02 07:09:30;;;;;;;10.85;4.35;;;11.00;99.90;;;;;;4979903;28;20030;-67
2023/01/02 07:11:57;;;;;;;;;;;11.00;99.90;;;;;;4976659;28;20027;-67
2023/01/02 07:14:23;;;;;;;9.77;3.47;;;11.00;99.90;;;;;;4975901;28;19906;-66
2023/01/02 07:16:48;;;;;;;16.20;4.18;;;10.90;99.90;;;;;;4977009;28;20366;-67
2023/01/02 07:19:14;;;;;;;14.37;4.80;;;11.20;99.90;;;;;;4976549;28;20046;-67
2023/01/02 07:21:39;;;;;;;7.03;3.50;;;11.40;99.90;;;;;;4976628;28;20057;-67
2023/01/02 07:24:05;;;;;;;11.03;4.30;;;11.40;99.90;;;;;;4976433;28;20034;-67
2023/01/02 07:26:30;;;;;;;8.98;3.83;;;11.40;99.90;;;;;;4975520;28;20064;-67
2023/01/02 07:28:56;;;;;;;8.70;4.30;;;11.30;99.90;;;;;;4976363;28;20035;-67
2023/01/02 07:31:21;;;;;;;10.70;3.70;;;11.30;99.90;;;;;;4976062;28;20046;-66
2023/01/02 07:33:47;;;;;;;11.90;3.93;;;11.20;99.90;;;;;;4976202;28;20035;-66
2023/01/02 07:36:16;;;;;;;12.77;3.60;;;11.20;99.90;;;;;;4976644;28;20035;-67
2023/01/02 07:38:42;;;;;;;8.95;3.40;;;11.10;99.90;;;;;;4976461;28;20102;-67
2023/01/02 07:41:13;;;;;;;;;;;11.10;99.90;;;;;;4976311;28;20026;-68
2023/01/02 07:43:38;;;;;;;10.38;3.30;;;11.20;99.90;;;;;;4976283;28;19956;-68
2023/01/02 07:46:04;;;;;;;6.50;2.90;;;11.40;99.90;;;;;;4975939;28;20034;-67
2023/01/02 07:48:30;;;;;;;7.43;3.13;;;11.50;99.90;;;;;;4976441;28;20027;-67
2023/01/02 07:51:02;;;;;;;8.85;3.55;;;11.50;99.90;;;;;;4975116;28;20377;-67
2023/01/02 07:53:28;;;;;;;8.40;3.80;;;11.50;99.90;;;;;;4975838;28;20023;-67
2023/01/02 07:55:57;;;;;;;9.13;3.95;;;11.40;99.90;;;;;;4975626;28;20034;-66
2023/01/02 07:58:23;;;;;;;9.98;3.60;;;11.50;99.90;;;;;;4975692;28;20054;-66
2023/01/02 08:00:49;;;;;;;9.55;3.78;;;11.40;99.90;;;;;;4975877;28;20050;-67
2023/01/02 08:03:14;;;;;;;9.23;4.07;;;11.50;99.90;;;;;;4975772;28;20042;-67
2023/01/02 08:05:40;;;;;;;10.47;4.23;;;11.50;99.90;;;;;;4976489;28;20456;-66
2023/01/02 08:08:06;;;;;;;10.27;3.53;;;11.60;99.90;;;;;;4975738;28;20054;-67
2023/01/02 08:10:31;;;;;;;8.07;3.78;;;11.50;99.90;;;;;;4976754;28;20511;-66
2023/01/02 08:12:57;;;;;;;15.77;4.30;;;11.50;99.90;;;;;;4975746;28;20085;-66
2023/01/02 08:15:25;;;;;;;12.23;3.70;;;11.60;99.90;;;;;;4975806;28;20023;-67
2023/01/02 08:17:51;;;;;;;11.68;4.03;;;11.60;99.90;;;;;;4975713;28;20054;-66
2023/01/02 08:20:16;;;;;;;10.67;4.83;;;11.60;99.90;;;;;;4975318;28;20504;-66
2023/01/02 08:22:42;;;;;;;16.27;3.77;;;11.60;99.90;;;;;;4975331;28;20030;-66
2023/01/02 08:25:09;;;;;;;6.50;3.57;;;11.70;99.90;;;;;;4973821;28;20023;-68
2023/01/02 08:27:34;;;;;;;11.05;4.03;;;11.60;99.90;;;;;;4975035;28;20038;-66
2023/01/02 08:30:00;;;;;;;15.40;4.40;;;11.80;99.90;;;;;;4974974;28;20027;-65
2023/01/02 08:32:26;;;;;;;10.53;4.17;;;11.90;99.90;;;;;;4975101;28;20325;-66
2023/01/02 08:34:51;;;;;;;16.53;4.50;;;11.90;99.90;;;;;;4975409;28;20030;-68
2023/01/02 08:37:17;;;;;;;17.13;4.57;;;11.90;99.90;;;;;;4974282;28;20065;-67
2023/01/02 08:39:42;;;;;;;14.20;5.10;;;11.90;99.90;;;;;;4973655;28;20034;-67
2023/01/02 08:42:08;;;;;;;11.17;4.67;;;12.00;99.90;;;;;;4974779;28;20030;-67
2023/01/02 08:44:36;;;;;;;14.17;5.43;;;12.00;99.90;;;;;;4974675;28;20033;-67
2023/01/02 08:47:03;;;;;;;13.60;4.40;;;12.20;99.90;;;;;;4974734;28;20026;-66
2023/01/02 08:49:28;;;;;;;17.88;4.97;;;12.20;99.90;;;;;;4974577;28;20034;-66
2023/01/02 08:51:54;;;;;;;9.70;4.03;;;12.30;99.90;;;;;;4974821;28;20057;-67
2023/01/02 08:54:19;;;;;;;11.20;4.20;;;12.60;99.90;;;;;;4973380;28;20170;-66
2023/01/02 08:56:45;;;;;;;16.97;4.33;;;12.60;99.90;;;;;;4974333;28;20134;-71
2023/01/02 08:59:11;;;;;;;14.07;4.90;;;12.60;99.90;;;;;;4973592;28;20058;-70
2023/01/02 09:01:38;;;;;;;10.93;4.05;;;12.50;99.90;;;;;;4974704;28;20033;-70
2023/01/02 09:04:03;;;;;;;15.00;5.68;;;12.50;99.90;;;;;;4974840;28;20081;-72
2023/01/02 09:06:30;;;;;;;12.20;4.25;;;12.50;99.90;;;;;;4973327;28;20023;-70
2023/01/02 09:08:58;;;;;;;12.02;4.32;;;12.50;99.90;;;;;;4974258;28;20033;-68
2023/01/02 09:11:25;;;;;;;11.68;3.70;;;12.60;99.90;;;;;;4974237;28;20073;-67
2023/01/02 09:13:50;;;;;;;8.55;3.40;;;12.60;99.90;;;;;;4974267;28;20026;-67
2023/01/02 09:16:16;;;;;;;12.60;3.77;;;12.80;99.90;;;;;;4973037;28;20038;-68
2023/01/02 09:18:42;;;;;;;10.27;4.13;;;12.90;99.90;;;;;;4974671;28;20476;-69
2023/01/02 09:21:07;;;;;;;11.03;3.40;;;13.00;99.90;;;;;;4974245;28;20037;-68
2023/01/02 09:23:33;;;;;;;11.07;3.70;;;13.20;99.90;;;;;;4974465;28;20027;-68
2023/01/02 09:26:00;;;;;;;8.97;3.90;;;13.40;99.90;;;;;;4974015;28;20026;-69
2023/01/02 09:28:27;;;;;;;10.27;3.75;;;13.40;99.90;;;;;;4973264;28;20258;-71
2023/01/02 09:30:53;;;;;;;7.97;3.53;;;13.40;99.90;;;;;;4974018;28;20502;-68
2023/01/02 09:33:19;;;;;;;9.10;3.13;;;13.40;99.90;;;;;;4974024;28;20027;-68
2023/01/02 09:35:45;;;;;;;9.73;3.50;;;13.40;99.90;;;;;;4973100;28;20035;-69
2023/01/02 09:38:10;;;;;;;13.67;4.13;;;13.60;99.90;;;;;;4974379;28;20062;-69
2023/01/02 09:40:41;;;;;;;7.37;3.47;;;13.60;99.90;;;;;;4973844;28;20066;-68
2023/01/02 09:43:09;;;;;;;10.35;3.88;;;13.40;99.90;;;;;;4974345;28;20420;-68
2023/01/02 09:45:38;;;;;;;9.02;3.53;;;13.50;99.90;;;;;;4974223;28;20023;-68
2023/01/02 09:48:04;;;;;;;10.95;2.75;;;13.50;99.90;;;;;;4973999;28;20027;-68
2023/01/02 09:50:30;;;;;;;8.57;3.10;;;13.50;99.90;;;;;;4977722;28;20069;-68
2023/01/02 09:52:59;;;;;;;7.30;2.53;;;13.60;99.90;;;;;;4978588;28;20070;-68
2023/01/02 09:55:39;;;;;;;8.10;2.55;;;13.60;99.90;;;;;;4977609;28;20281;-67
2023/01/02 09:58:42;;;;;;;9.60;2.60;;;13.70;99.90;;;;;;4977773;28;20031;-68
2023/01/02 10:01:30;;;;;;;7.32;2.40;;;13.70;99.90;;;;;;4977569;28;20552;-67
2023/01/02 10:04:21;;;;;;;4.15;2.13;;;13.90;99.90;;;;;;4978186;28;20026;-67
2023/01/02 10:06:57;;;;;;;9.85;2.88;;;14.00;99.90;;;;;;4977658;28;20077;-68
2023/01/02 10:09:48;;;;;;;7.80;2.50;;;14.00;99.90;;;;;;4977705;28;20077;-68
2023/01/02 10:12:39;;;;;;;9.50;2.45;;;14.10;99.90;;;;;;4977289;28;20439;-68
2023/01/02 10:15:09;;;;;;;9.07;2.70;;;14.30;99.90;;;;;;4977807;28;20114;-69
2023/01/02 10:17:42;;;;;;;5.47;2.22;;;14.60;99.90;;;;;;4978200;28;20521;-69
2023/01/02 10:20:24;;;;;;;9.15;2.78;;;14.70;99.90;;;;;;4977601;28;20440;-68
2023/01/02 10:22:53;;;;;;;6.47;2.40;;;14.80;99.90;;;;;;4977581;28;20110;-67
2023/01/02 10:25:29;;;;;;;6.97;2.30;;;14.90;99.90;;;;;;4977503;28;20031;-67
2023/01/02 10:28:21;;;;;;;5.78;2.28;;;14.90;99.90;;;;;;4977460;28;20094;-67
2023/01/02 10:30:54;;;;;;;9.07;2.40;;;15.00;99.90;;;;;;4973885;28;20126;-67
2023/01/02 10:33:50;;;;;;;9.52;1.98;;;15.00;99.90;;;;;;4977228;28;20428;-68
2023/01/02 10:36:25;;;;;;;10.20;3.33;;;14.90;99.90;;;;;;4975978;28;20074;-72
2023/01/02 10:39:03;;;;;;;7.85;2.20;;;14.90;99.90;;;;;;4977142;28;20019;-67
2023/01/02 10:41:30;;;;;;;10.15;3.10;;;14.80;99.90;;;;;;4976918;28;20037;-66
2023/01/02 10:44:04;;;;;;;7.90;2.33;;;14.90;99.90;;;;;;4977182;28;20547;-66
2023/01/02 10:46:35;;;;;;;9.77;2.42;;;15.00;99.80;;;;;;4977477;28;20019;-66
2023/01/02 10:49:02;;;;;;;6.13;2.00;;;15.10;99.70;;;;;;4977011;28;20074;-68
2023/01/02 10:51:29;;;;;;;7.45;2.65;;;15.20;99.40;;;;;;4977205;28;20023;-66
2023/01/02 10:54:03;;;;;;;6.78;2.63;;;15.40;99.30;;;;;;4976816;28;20078;-67
2023/01/02 10:56:31;;;;;;;7.43;2.65;;;15.70;99.60;;;;;;4977080;28;20114;-67
2023/01/02 10:58:57;;;;;;;7.90;2.30;;;15.80;99.10;;;;;;4975655;28;20027;-67
2023/01/02 11:01:22;;;;;;;10.50;2.83;;;16.00;98.70;;;;;;4975635;28;20023;-67
2023/01/02 11:04:08;;;;;;;4.73;2.27;;;16.00;98.90;;;;;;4976658;28;20031;-67
2023/01/02 11:06:43;;;;;;;6.55;2.78;;;15.80;99.00;;;;;;4976896;28;20257;-68
2023/01/02 11:09:22;;;;;;;11.35;2.85;;;15.90;98.90;;;;;;4976788;28;20109;-67
2023/01/02 11:11:50;;;;;;;12.40;2.55;;;15.90;98.90;;;;;;4976551;28;20475;-68
2023/01/02 11:14:21;;;;;;;6.38;2.95;;;16.00;98.80;;;;;;4976069;28;20035;-67
2023/01/02 11:16:46;;;;;;;9.55;2.55;;;16.00;98.90;;;;;;4977806;28;20428;-68
2023/01/02 11:19:19;;;;;;;14.18;3.03;;;15.90;98.90;;;;;;4977501;28;20018;-68
2023/01/02 11:21:45;;;;;;;22.50;5.03;;;15.90;99.10;;;;;;4976650;28;20038;-67
2023/01/02 11:24:18;;;;;;;6.32;2.45;;;15.90;99.20;;;;;;4976309;28;20433;-67
2023/01/02 11:26:46;;;;;;;7.43;2.72;;;15.90;99.10;;;;;;4976272;28;20027;-67
2023/01/02 11:29:23;;;;;;;8.98;2.65;;;15.90;99.30;;;;;;4976207;28;20055;-68
2023/01/02 11:31:52;;;;;;;12.50;2.75;;;16.00;99.00;;;;;;4976518;28;20492;-67
2023/01/02 11:34:29;;;;;;;9.73;2.03;;;16.00;99.30;;;;;;4976314;28;20484;-67
2023/01/02 11:37:05;;;;;;;;;;;15.90;99.20;;;;;;4977371;28;20491;-67
2023/01/02 11:39:33;;;;;;;7.63;2.00;;;16.00;99.40;;;;;;4976228;28;20008;-67
2023/01/02 11:44:54;;;;;;;8.35;2.20;;;16.20;99.30;;;;;;4976807;28;20034;-68
2023/01/02 11:47:36;;;;;;;13.02;2.60;;;16.20;99.20;;;;;;4976698;28;20019;-67
2023/01/02 11:50:03;;;;;;;13.77;2.22;;;16.20;99.30;;;;;;4976302;28;20046;-67
2023/01/02 11:52:33;;;;;;;;;;;16.20;99.40;;;;;;4976253;28;20068;-67
2023/01/02 11:55:28;;;;;;;11.75;2.97;;;16.10;99.40;;;;;;4975851;28;19913;-68
2023/01/02 11:57:58;;;;;;;9.93;2.60;;;16.20;99.60;;;;;;4975628;28;20027;-68
2023/01/02 12:00:30;;;;;;;8.18;2.65;;;16.30;99.50;;;;;;4975673;28;20027;-68
2023/01/02 12:03:25;;;;;;;13.32;3.03;;;16.40;99.50;;;;;;4975708;28;20070;-67
2023/01/02 12:06:15;;;;;;;9.55;2.72;;;16.30;99.80;;;;;;4976350;28;20019;-67
2023/01/02 12:09:02;;;;;;;21.55;6.47;;;16.30;99.90;;;;;;4974574;28;20027;-73
2023/01/02 12:11:40;;;;;;;13.48;3.67;;;16.20;99.90;;;;;;4973642;28;20039;-69
2023/01/02 12:14:05;;;;;;;21.77;4.53;;;16.20;99.90;;;;;;4976009;28;20035;-70
2023/01/02 12:16:43;;;;;;;37.10;16.43;;;16.20;99.90;;;;;;4974411;28;20394;-76
2023/01/02 12:19:35;;;;;;;20.40;10.15;;;16.30;99.90;;;;;;4975540;28;20030;-69
2023/01/02 12:22:19;;;;;;;13.98;7.45;;;16.40;99.90;;;;;;4967902;28;20141;-68
2023/01/02 12:24:59;;;;;;;20.33;7.55;;;16.40;99.90;;;;;;4974176;28;20488;-68
2023/01/02 12:27:50;;;;;;;12.68;2.65;;;16.30;99.90;;;;;;4975699;28;20351;-68
2023/01/02 12:30:19;;;;;;;9.82;2.53;;;16.30;99.90;;;;;;4975092;28;20117;-69
2023/01/02 12:32:58;;;;;;;9.15;2.13;;;16.30;99.90;;;;;;4975312;28;20448;-69
2023/01/02 12:35:52;;;;;;;14.15;2.90;;;16.10;99.90;;;;;;4975349;28;20082;-67
2023/01/02 12:38:32;;;;;;;12.95;3.03;;;16.10;99.90;;;;;;4975368;28;20396;-67
2023/01/02 12:41:30;;;;;;;13.85;3.03;;;16.10;99.90;;;;;;4975107;28;20046;-66
2023/01/02 12:44:01;;;;;;;14.00;2.72;;;16.10;99.90;;;;;;4975455;28;20539;-67
2023/01/02 12:46:32;;;;;;;8.27;2.58;;;16.00;99.90;;;;;;4974298;28;20117;-67
2023/01/02 12:49:32;;;;;;;10.63;2.55;;;15.80;99.90;;;;;;4975213;28;20019;-70
2023/01/02 12:52:21;;;;;;;7.63;2.17;;;15.80;99.90;;;;;;4973619;28;20034;-70
2023/01/02 12:55:05;;;;;;;9.93;2.25;;;15.70;99.90;;;;;;4974924;28;20031;-71
2023/01/02 12:58:04;;;;;;;12.70;2.70;;;15.70;99.90;;;;;;4974578;28;20166;-70
2023/01/02 13:00:54;;;;;;;7.63;2.42;;;15.70;99.90;;;;;;4973547;28;20027;-71
2023/01/02 13:03:44;;;;;;;9.07;1.98;;;15.60;99.90;;;;;;4973587;28;20034;-71
2023/01/02 13:06:18;;;;;;;12.95;2.17;;;15.50;99.90;;;;;;4975011;28;20392;-71
2023/01/02 13:09:02;;;;;;;9.93;2.72;;;15.40;99.90;;;;;;4973925;28;20077;-71
2023/01/02 13:11:44;;;;;;;7.35;2.22;;;15.40;99.90;;;;;;4974844;28;20027;-71